Nearby METAR Reports

 

KEDC - Austin Exec, Texas, USA
Distance from station: SSE 10mi, 17km
Updated: Sun, 07-Jun-2020 3:35am CDT
Few Clouds
Few Clouds
 Wind from N
Wind: N 3 mph , 6 km/h
Temperature: 75°F , 24°C
Dew Point: 72°F , 22°C
Humidity: 89%
Barometer: 29.81 inHg , 1009.5 hPa
Clouds: Few Clouds
Visibility: 10 miles , 16 km
Cloud details: Few Clouds 4700 ft
2020/06/07 08:35 KEDC 070835Z AUTO 36003KT 10SM FEW047 24/22 A2981 RMK AO2
KGTU - Georgetown, Texas, USA
Distance from station: NNW 11mi, 17km
Updated: Sun, 07-Jun-2020 3:56am CDT
Clear
Clear
 Wind from N
Wind: N 5 mph , 7 km/h
Temperature: 75°F , 24°C
Dew Point: 70°F , 21°C
Humidity: 83%
Barometer: 29.83 inHg , 1010.2 hPa
Clouds: Clear
Visibility: 10 miles , 16 km
2020/06/07 08:56 KGTU 070856Z AUTO 36004KT 10SM CLR 24/21 A2983 RMK AO2 SLP094 T02390206 58008
 
KATT - Austin/Mabry, Texas, USA
Distance from station: SSW 18mi, 30km
Updated: Sun, 07-Jun-2020 3:51am CDT
Few Clouds
Few Clouds
 Wind from calm
Wind: Calm
Temperature: 77°F , 25°C
Dew Point: 70°F , 21°C
Humidity: 79%
Barometer: 29.81 inHg , 1009.5 hPa
Clouds: Few Clouds
Visibility: 10 miles , 16 km
Cloud details: Few Clouds 4900 ft
2020/06/07 08:51 KATT 070851Z AUTO 00000KT 10SM FEW049 25/21 A2981 RMK AO2 SLP080 T02500211 58008 $
KRYW - Lago Vista, Texas, USA
Distance from station: W 22mi, 35km
Updated: Sun, 07-Jun-2020 3:55am CDT
Clear
Clear
 Wind from NE
Wind: NE 3 mph , 6 km/h
Temperature: 75°F , 24°C
Dew Point: 70°F , 21°C
Humidity: 83%
Barometer: 29.84 inHg , 1010.5 hPa
Clouds: Clear
Visibility: 10 miles , 16 km
2020/06/07 08:55 KRYW 070855Z AUTO 04003KT 10SM CLR 24/21 A2984 RMK AO2 T02370205
 
KAUS - Austin, Texas, USA
Distance from station: S 25mi, 41km
Updated: Sun, 07-Jun-2020 3:53am CDT
Few Clouds
Few Clouds
 Wind from calm
Wind: Calm
Temperature: 73°F , 23°C
Dew Point: 72°F , 22°C
Humidity: 94%
Barometer: 29.80 inHg , 1009.1 hPa
Clouds: Few Clouds
Visibility: 9 miles , 14 km
Cloud details: Few Clouds 5500 ft
2020/06/07 08:53 KAUS 070853Z 00000KT 9SM FEW055 23/22 A2980 RMK AO2 SLP078 T02330222 58007
KILE - Killeen Muni, Texas, USA
Distance from station: N 36mi, 58km
Updated: Sun, 07-Jun-2020 3:56am CDT
Clear
Clear
 Wind from calm
Wind: Calm
Temperature: 75°F , 24°C
Dew Point: 70°F , 21°C
Humidity: 83%
Barometer: 29.83 inHg , 1010.2 hPa
Clouds: Clear
Visibility: 10 miles , 16 km
2020/06/07 08:56 KILE 070856Z AUTO 00000KT 10SM CLR 24/21 A2983 RMK AO2 SLP085 T02440211 58008
 
KGRK - Gray/Ft Hood, Texas, USA
Distance from station: NNW 38mi, 62km
Updated: Sun, 07-Jun-2020 2:58am CDT
Clear
Clear
 Wind from E
Wind: E 3 mph , 6 km/h
Temperature: 77°F , 25°C
Dew Point: 70°F , 21°C
Humidity: 79%
Barometer: 29.82 inHg , 1009.8 hPa
Clouds: Clear
Visibility: 10 miles , 16 km
2020/06/07 07:58 KGRK 070758Z AUTO 10003KT 10SM CLR 25/21 A2982 RMK AO2 SLP086 T02540208
KBMQ - Burnet, Texas, USA
Distance from station: WNW 39mi, 64km
Updated: Sun, 07-Jun-2020 3:53am CDT
Partly cloudy
Partly cloudy
 Wind from calm
Wind: Calm
Temperature: 75°F , 24°C
Dew Point: 64°F , 18°C
Humidity: 69%
Barometer: 29.86 inHg , 1011.2 hPa
Clouds: Partly cloudy
Visibility: 10 miles , 16 km
Cloud details: Partly cloudy 6500 ft
2020/06/07 08:53 KBMQ 070853Z AUTO 00000KT 10SM SCT065 24/18 A2986 RMK AO2 SLP089 T02390183 58009
 
KHLR - Ft Hood/Killeen, Texas, USA
Distance from station: N 41mi, 66km
Updated: Sun, 07-Jun-2020 2:58am CDT
Clear
Clear
 Wind from E
Wind: E 3 mph , 6 km/h
Temperature: 79°F , 26°C
Dew Point: 70°F , 21°C
Humidity: 74%
Barometer: 29.83 inHg , 1010.2 hPa
Clouds: Clear
Visibility: 10 miles , 16 km
2020/06/07 07:58 KHLR 070758Z AUTO 10003KT 10SM CLR 26/21 A2983 RMK AO2 SLP088 T02560212
KTPL - Temple/Miller, Texas, USA
Distance from station: NNE 42mi, 68km
Updated: Sun, 07-Jun-2020 3:51am CDT
Clear
Clear
 Wind from NE
Wind: NE 6 mph , 9 km/h
Temperature: 75°F , 24°C
Dew Point: 72°F , 22°C
Humidity: 89%
Barometer: 29.82 inHg , 1009.8 hPa
Clouds: Clear
Visibility: 10 miles , 16 km
2020/06/07 08:51 KTPL 070851Z AUTO 05005KT 10SM CLR 24/22 A2982 RMK AO2 SLP086 T02390222 58006
 
KT35 - Cameron, Texas, USA
Distance from station: ENE 45mi, 72km
Updated: Sun, 07-Jun-2020 3:35am CDT
Clear
Clear
 Wind from calm
Wind: Calm
Temperature: 75°F , 24°C
Dew Point: 72°F , 22°C
Humidity: 89%
Barometer: 29.80 inHg , 1009.1 hPa
Clouds: Clear
Visibility: 10 miles , 16 km
2020/06/07 08:35 KT35 070835Z AUTO 00000KT 10SM CLR 24/22 A2980 RMK AO2 T02400222
KDZB - Horseshoe Bay, Texas, USA
Distance from station: W 45mi, 73km
Updated: Sun, 07-Jun-2020 3:17am CDT
Clear
Clear
 Wind from calm
Wind: Calm
Temperature: 72°F , 22°C
Dew Point: 66°F , 19°C
Humidity: 83%
Barometer: 29.84 inHg , 1010.5 hPa
Clouds: Clear
Visibility: 10 miles , 16 km
2020/06/07 08:17 KDZB 070817Z AUTO 00000KT 10SM CLR 22/19 A2984 RMK AO2
 
KGYB - Giddings-Lee, Texas, USA
Distance from station: SE 45mi, 73km
Updated: Sun, 07-Jun-2020 3:55am CDT
Clear
Clear
 Wind from NE
Wind: NE 3 mph , 6 km/h
Temperature: 77°F , 25°C
Dew Point: 72°F , 22°C
Humidity: 83%
Barometer: 29.79 inHg , 1008.8 hPa
Clouds: Clear
Visibility: 10 miles , 16 km
2020/06/07 08:55 KGYB 070855Z AUTO 04003KT 10SM CLR 25/22 A2979 RMK AO2 T02520220
KHYI - San Marcos, Texas, USA
Distance from station: SSW 48mi, 78km
Updated: Sun, 07-Jun-2020 3:56am CDT
Few Clouds
Few Clouds
 Wind from N
Wind: N 6 mph , 9 km/h
Temperature: 73°F , 23°C
Dew Point: 72°F , 22°C
Humidity: 94%
Barometer: 29.80 inHg , 1009.1 hPa
Clouds: Few Clouds
Visibility: 10 miles , 16 km
Cloud details: Few Clouds 4900 ft
2020/06/07 08:56 KHYI 070856Z 01005KT 10SM FEW049 23/22 A2980 RMK AO2 SLP082 T02330222 58009
 
KLZZ - Lampasas, Texas, USA
Distance from station: NW 52mi, 84km
Updated: Sun, 07-Jun-2020 3:35am CDT
Clear
Clear
 Wind from N
Wind: N 3 mph , 6 km/h
Temperature: 72°F , 22°C
Dew Point: 68°F , 20°C
Humidity: 88%
Barometer: 29.84 inHg , 1010.5 hPa
Clouds: Clear
Visibility: 10 miles , 16 km
2020/06/07 08:35 KLZZ 070835Z AUTO 01003KT 10SM CLR 22/20 A2984 RMK AO2 T02230196
KRWV - Caldwell, Texas, USA
Distance from station: E 54mi, 87km
Updated: Sun, 07-Jun-2020 3:55am CDT
Clear
Clear
 Wind from NNE
Wind: NNE 6 mph , 9 km/h
Temperature: 77°F , 25°C
Dew Point: 75°F , 24°C
Humidity: 94%
Barometer: 29.79 inHg , 1008.8 hPa
Clouds: Clear
Visibility: 10 miles , 16 km
2020/06/07 08:55 KRWV 070855Z AUTO 03005KT 10SM CLR 25/24 A2979 RMK AO2 T02460237
 
K3T5 - La Grange, Texas, USA
Distance from station: SE 59mi, 95km
Updated: Sun, 07-Jun-2020 3:55am CDT
Clear
Clear
 Wind from calm
Wind: Calm
Temperature: 75°F , 24°C
Dew Point: 75°F , 24°C
Humidity: 100%
Barometer: 29.76 inHg , 1007.8 hPa
Clouds: Clear
Visibility: 10 miles , 16 km
2020/06/07 08:55 K3T5 070855Z AUTO 00000KT 10SM CLR 24/24 A2976 RMK AO2 T02400240
KGOP - Gatesville, Texas, USA
Distance from station: N 61mi, 99km
Updated: Sun, 07-Jun-2020 3:55am CDT
Clear
Clear
 Wind from calm
Wind: Calm
Temperature: 75°F , 24°C
Dew Point: 70°F , 21°C
Humidity: 83%
Barometer: 29.85 inHg , 1010.8 hPa
Clouds: Clear
Visibility: 10 miles , 16 km
2020/06/07 08:55 KGOP 070855Z AUTO 00000KT 10SM CLR 24/21 A2985 RMK AO2
 
KLHB - Hearne Muni, Texas, USA
Distance from station: ENE 63mi, 101km
Updated: Sun, 07-Jun-2020 3:55am CDT
Clear
Clear
 Wind from calm
Wind: Calm
Temperature: 75°F , 24°C
Dew Point: 72°F , 22°C
Humidity: 89%
Barometer: 29.80 inHg , 1009.1 hPa
Clouds: Clear
Visibility: 10 miles , 16 km
2020/06/07 08:55 KLHB 070855Z AUTO 00000KT 10SM CLR 24/22 A2980 RMK AO2 T02420220
KBAZ - New Braunfels, Texas, USA
Distance from station: SSW 63mi, 102km
Updated: Sun, 07-Jun-2020 3:51am CDT
Partly cloudy
Partly cloudy
 Wind from NNW
Wind: NNW 5 mph , 7 km/h
Temperature: 75°F , 24°C
Dew Point: 70°F , 21°C
Humidity: 83%
Barometer: 29.78 inHg , 1008.5 hPa
Clouds: Partly cloudy
Visibility: 10 miles , 16 km
Cloud details: Partly cloudy 5500 ft
Partly cloudy 7000 ft
Partly cloudy 8000 ft
2020/06/07 08:51 KBAZ 070851Z AUTO 34004KT 10SM SCT055 SCT070 SCT080 24/21 A2978 RMK AO2 SLP074 T02440211 58012